createdAt,value
2023-01-13T00:01:21.185Z,4.70
2023-01-13T00:03:48.247Z,4.70
2023-01-13T00:06:16.814Z,4.70
2023-01-13T00:08:44.029Z,4.90
2023-01-13T00:11:11.372Z,4.90
2023-01-13T00:13:39.076Z,4.90
2023-01-13T00:16:07.043Z,4.90
2023-01-13T00:18:34.609Z,4.90
2023-01-13T00:21:08.894Z,4.90
2023-01-13T00:23:36.320Z,4.90
2023-01-13T00:26:04.931Z,4.90
2023-01-13T00:28:31.945Z,4.90
2023-01-13T00:31:08.946Z,4.90
2023-01-13T00:33:36.648Z,5.00
2023-01-13T00:36:04.528Z,5.00
2023-01-13T00:38:32.443Z,5.10
2023-01-13T00:41:04.229Z,5.10
2023-01-13T00:43:32.856Z,5.10
2023-01-13T00:46:00.189Z,5.10
2023-01-13T00:48:27.660Z,5.10
2023-01-13T00:50:55.433Z,5.10
2023-01-13T00:53:22.524Z,5.10
2023-01-13T00:55:49.453Z,5.20
2023-01-13T00:58:16.473Z,5.10
2023-01-13T01:00:43.791Z,5.10
2023-01-13T01:03:12.500Z,5.10
2023-01-13T01:05:40.381Z,5.10
2023-01-13T01:08:07.419Z,5.10
2023-01-13T01:10:34.517Z,5.10
2023-01-13T01:13:01.573Z,5.20
2023-01-13T01:15:31.915Z,5.10
2023-01-13T01:17:58.867Z,5.10
2023-01-13T01:20:25.897Z,5.10
2023-01-13T01:22:52.948Z,5.20
2023-01-13T01:25:19.972Z,5.10
2023-01-13T01:27:47.015Z,5.30
2023-01-13T01:30:14.312Z,5.30
2023-01-13T01:32:41.320Z,5.20
2023-01-13T01:35:08.569Z,5.20
2023-01-13T01:37:35.542Z,5.20
2023-01-13T01:40:02.541Z,5.20
2023-01-13T01:42:48.141Z,5.20
2023-01-13T01:45:15.139Z,5.20
2023-01-13T01:47:42.689Z,5.20
2023-01-13T01:50:10.348Z,5.20
2023-01-13T01:52:40.893Z,5.20
2023-01-13T01:55:14.143Z,5.30
2023-01-13T01:57:49.255Z,5.30
2023-01-13T02:00:16.497Z,5.30
2023-01-13T02:02:45.320Z,5.20
2023-01-13T02:05:12.333Z,5.20
2023-01-13T02:07:40.844Z,5.30
2023-01-13T02:10:09.665Z,5.20
2023-01-13T02:12:37.122Z,5.20
2023-01-13T02:15:07.878Z,5.30
2023-01-13T02:17:37.693Z,5.30
2023-01-13T02:20:07.837Z,5.30
2023-01-13T02:23:01.133Z,5.30
2023-01-13T02:25:31.161Z,5.20
2023-01-13T02:28:02.092Z,5.20
2023-01-13T02:30:56.696Z,5.20
2023-01-13T02:33:35.772Z,5.20
2023-01-13T02:36:06.356Z,5.20
2023-01-13T02:38:35.431Z,5.30
2023-01-13T02:41:26.653Z,5.20
2023-01-13T02:44:09.215Z,5.30
2023-01-13T02:46:57.660Z,5.20
2023-01-13T02:49:28.589Z,5.20
2023-01-13T02:51:59.730Z,5.20
2023-01-13T02:54:28.029Z,5.20
2023-01-13T02:56:56.294Z,5.20
2023-01-13T02:59:26.452Z,5.30
2023-01-13T03:01:55.774Z,5.30
2023-01-13T03:04:41.779Z,5.30
2023-01-13T03:07:29.012Z,5.30
2023-01-13T03:10:01.444Z,5.30
2023-01-13T03:12:37.887Z,5.30
2023-01-13T03:15:11.423Z,5.30
2023-01-13T03:17:58.606Z,5.40
2023-01-13T03:20:32.724Z,5.30
2023-01-13T03:22:59.684Z,5.30
2023-01-13T03:25:28.943Z,5.30
2023-01-13T03:28:07.419Z,5.30
2023-01-13T03:30:41.211Z,5.30
2023-01-13T03:33:18.423Z,5.40
2023-01-13T03:35:47.162Z,5.30
2023-01-13T03:38:17.506Z,5.40
2023-01-13T03:40:46.087Z,5.40
2023-01-13T03:43:33.422Z,5.40
2023-01-13T03:46:03.648Z,5.40
2023-01-13T03:48:33.055Z,5.40
2023-01-13T03:51:05.439Z,5.40
2023-01-13T03:53:40.437Z,5.40
2023-01-13T03:56:12.297Z,5.40
2023-01-13T03:58:43.652Z,5.40
2023-01-13T04:01:10.583Z,5.40
2023-01-13T04:03:44.343Z,5.40
2023-01-13T04:06:17.362Z,5.40
2023-01-13T04:08:49.307Z,5.40
2023-01-13T04:11:19.381Z,5.50
2023-01-13T04:13:48.180Z,5.40
2023-01-13T04:16:15.430Z,5.40
2023-01-13T04:18:42.332Z,5.50
2023-01-13T04:21:09.513Z,5.40
2023-01-13T04:23:36.570Z,5.40
2023-01-13T04:26:03.583Z,5.40
2023-01-13T04:28:30.586Z,5.40
2023-01-13T04:30:58.087Z,5.40
2023-01-13T04:33:25.090Z,5.40
2023-01-13T04:35:52.857Z,5.40
2023-01-13T04:38:20.817Z,5.40
2023-01-13T04:40:48.014Z,5.40
2023-01-13T04:43:15.971Z,5.40
2023-01-13T04:45:43.761Z,5.40
2023-01-13T04:48:11.006Z,5.50
2023-01-13T04:50:38.128Z,5.50
2023-01-13T04:53:06.013Z,5.50
2023-01-13T04:55:33.043Z,5.50
2023-01-13T04:58:07.031Z,5.50
2023-01-13T05:00:34.314Z,5.50
2023-01-13T05:03:01.365Z,5.50
2023-01-13T05:05:29.099Z,5.50
2023-01-13T05:07:56.150Z,5.50
2023-01-13T05:10:24.181Z,5.50
2023-01-13T05:13:09.499Z,5.40
2023-01-13T05:15:55.596Z,5.50
2023-01-13T05:18:22.685Z,5.40
2023-01-13T05:20:50.096Z,5.50
2023-01-13T05:23:35.652Z,5.50
2023-01-13T05:26:02.597Z,5.40
2023-01-13T05:28:33.527Z,5.50
2023-01-13T05:31:01.558Z,5.50
2023-01-13T05:33:28.844Z,5.50
2023-01-13T05:35:55.896Z,5.50
2023-01-13T05:38:22.823Z,5.50
2023-01-13T05:41:08.554Z,5.40
2023-01-13T05:43:35.542Z,5.50
2023-01-13T05:46:02.614Z,5.40
2023-01-13T05:48:31.157Z,5.40
2023-01-13T05:50:58.415Z,5.40
2023-01-13T05:53:25.661Z,5.40
2023-01-13T05:55:52.858Z,5.40
2023-01-13T05:58:20.811Z,5.40
2023-01-13T06:00:47.915Z,5.40
2023-01-13T06:03:16.213Z,5.40
2023-01-13T06:05:43.751Z,5.40
2023-01-13T06:08:10.752Z,5.40
2023-01-13T06:10:37.708Z,5.40
2023-01-13T06:13:05.003Z,5.50
2023-01-13T06:15:32.167Z,5.40
2023-01-13T06:17:59.080Z,5.50
2023-01-13T06:20:26.127Z,5.40
2023-01-13T06:22:53.717Z,5.40
2023-01-13T06:25:26.911Z,5.40
2023-01-13T06:27:54.649Z,5.40
2023-01-13T06:30:21.685Z,5.40
2023-01-13T06:32:51.974Z,5.40
2023-01-13T06:35:20.553Z,5.40
2023-01-13T06:37:50.570Z,5.40
2023-01-13T06:40:17.974Z,5.40
2023-01-13T06:43:03.803Z,5.40
2023-01-13T06:45:31.540Z,5.40
2023-01-13T06:48:00.044Z,5.30
2023-01-13T06:50:27.488Z,5.30
2023-01-13T06:52:54.622Z,5.30
2023-01-13T06:55:21.814Z,5.20
2023-01-13T06:57:48.972Z,5.20
2023-01-13T07:00:16.196Z,5.20
2023-01-13T07:02:43.217Z,5.20
2023-01-13T07:05:10.494Z,5.20
2023-01-13T07:07:37.600Z,5.20
2023-01-13T07:10:05.022Z,5.20
2023-01-13T07:12:52.333Z,5.20
2023-01-13T07:15:19.343Z,5.20
2023-01-13T07:17:46.384Z,5.20
2023-01-13T07:20:13.447Z,5.20
2023-01-13T07:22:40.419Z,5.20
2023-01-13T07:25:07.702Z,5.20
2023-01-13T07:27:35.474Z,5.20
2023-01-13T07:30:02.741Z,5.20
2023-01-13T07:32:31.752Z,5.20
2023-01-13T07:35:04.822Z,5.20
2023-01-13T07:37:35.698Z,5.20
2023-01-13T07:40:03.181Z,5.20
2023-01-13T07:42:48.768Z,5.20
2023-01-13T07:45:15.886Z,5.10
2023-01-13T07:47:42.941Z,5.10
2023-01-13T07:50:10.349Z,5.10
2023-01-13T07:52:37.285Z,5.10
2023-01-13T07:55:04.394Z,5.10
2023-01-13T07:57:31.521Z,5.10
2023-01-13T07:59:58.456Z,5.10
2023-01-13T08:02:25.539Z,5.10
2023-01-13T08:04:52.608Z,5.10
2023-01-13T08:07:19.625Z,5.20
2023-01-13T08:09:46.623Z,5.10
2023-01-13T08:12:32.405Z,5.10
2023-01-13T08:14:59.414Z,5.10
2023-01-13T08:17:26.385Z,5.10
2023-01-13T08:19:53.440Z,5.10
2023-01-13T08:22:20.407Z,5.10
2023-01-13T08:24:47.426Z,5.10
2023-01-13T08:27:15.155Z,5.10
2023-01-13T08:29:42.891Z,5.10
2023-01-13T08:32:10.062Z,5.10
2023-01-13T08:34:38.384Z,5.10
2023-01-13T08:37:06.089Z,5.10
2023-01-13T08:39:33.049Z,5.00
2023-01-13T08:42:00.404Z,5.00
2023-01-13T08:44:28.338Z,5.10
2023-01-13T08:46:55.817Z,5.10
2023-01-13T08:49:23.275Z,5.00
2023-01-13T08:51:50.562Z,5.00
2023-01-13T08:54:18.004Z,5.00
2023-01-13T08:56:45.896Z,5.00
2023-01-13T08:59:13.819Z,5.00
2023-01-13T09:01:41.203Z,5.00
2023-01-13T09:04:12.565Z,5.00
2023-01-13T09:06:39.532Z,5.00
2023-01-13T09:09:06.488Z,5.00
2023-01-13T09:11:54.122Z,5.00
2023-01-13T09:14:22.028Z,5.00
2023-01-13T09:16:49.101Z,5.00
2023-01-13T09:19:16.596Z,5.00
2023-01-13T09:21:43.545Z,5.00
2023-01-13T09:24:10.675Z,5.00
2023-01-13T09:26:38.018Z,4.90
2023-01-13T09:29:05.057Z,4.90
2023-01-13T09:31:34.838Z,4.90
2023-01-13T09:34:20.664Z,4.90
2023-01-13T09:36:47.620Z,4.90
2023-01-13T09:39:14.919Z,4.90
2023-01-13T09:42:02.574Z,4.90
2023-01-13T09:44:50.124Z,4.90
2023-01-13T09:47:28.083Z,4.90
2023-01-13T09:49:58.282Z,4.90
2023-01-13T09:52:27.688Z,4.90
2023-01-13T09:55:12.187Z,4.90
2023-01-13T09:57:40.068Z,4.90
2023-01-13T10:00:11.743Z,4.90
2023-01-13T10:02:55.253Z,4.80
2023-01-13T10:05:38.904Z,4.90
2023-01-13T10:08:12.185Z,4.90
2023-01-13T10:10:39.286Z,4.80
2023-01-13T10:13:33.581Z,4.90
2023-01-13T10:16:06.588Z,4.80
2023-01-13T10:18:33.617Z,4.80
2023-01-13T10:21:00.566Z,4.80
2023-01-13T10:23:39.558Z,4.80
2023-01-13T10:26:06.646Z,4.80
2023-01-13T10:28:33.682Z,4.80
2023-01-13T10:31:00.832Z,4.70
2023-01-13T10:33:28.608Z,4.70
2023-01-13T10:35:57.187Z,4.70
2023-01-13T10:38:27.324Z,4.80
2023-01-13T10:40:55.732Z,4.70
2023-01-13T10:43:23.246Z,4.80
2023-01-13T10:45:53.393Z,4.70
2023-01-13T10:48:20.501Z,4.80
2023-01-13T10:50:48.939Z,4.70
2023-01-13T10:53:23.861Z,4.80
2023-01-13T10:56:04.015Z,4.70
2023-01-13T10:58:31.067Z,4.70
2023-01-13T11:01:02.942Z,4.70
2023-01-13T11:03:41.815Z,4.70
2023-01-13T11:06:09.910Z,4.70
2023-01-13T11:08:47.887Z,4.70
2023-01-13T11:11:33.025Z,4.70
2023-01-13T11:14:21.148Z,4.70
2023-01-13T11:16:53.693Z,4.70
2023-01-13T11:19:22.860Z,4.70
2023-01-13T11:21:56.787Z,4.70
2023-01-13T11:24:26.879Z,4.70
2023-01-13T11:27:02.361Z,4.70
2023-01-13T11:29:33.192Z,4.70
2023-01-13T11:32:14.924Z,4.70
2023-01-13T11:34:45.405Z,4.70
2023-01-13T11:37:21.850Z,4.70
2023-01-13T11:39:58.347Z,4.60
2023-01-13T11:42:31.694Z,4.60
2023-01-13T11:45:06.359Z,4.70
2023-01-13T11:47:35.203Z,4.70
2023-01-13T11:50:02.601Z,4.60
2023-01-13T11:52:47.978Z,4.60
2023-01-13T11:55:14.978Z,4.60
2023-01-13T11:58:00.679Z,4.60
2023-01-13T12:00:30.438Z,4.60
2023-01-13T12:02:58.639Z,4.60
2023-01-13T12:05:36.745Z,4.60
2023-01-13T12:08:11.177Z,4.60
2023-01-13T12:10:38.143Z,4.60
2023-01-13T12:13:14.170Z,4.60
2023-01-13T12:15:53.427Z,4.60
2023-01-13T12:18:26.471Z,4.60
2023-01-13T12:21:00.340Z,4.60
2023-01-13T12:23:30.684Z,4.60
2023-01-13T12:26:08.247Z,4.50
2023-01-13T12:28:44.181Z,4.60
2023-01-13T12:31:11.569Z,4.50
2023-01-13T12:33:57.259Z,4.60
2023-01-13T12:36:28.845Z,4.60
2023-01-13T12:39:02.499Z,4.50
2023-01-13T12:41:32.740Z,4.50
2023-01-13T12:44:19.253Z,4.50
2023-01-13T12:46:50.915Z,4.50
2023-01-13T12:49:23.480Z,4.50
2023-01-13T12:51:50.381Z,4.50
2023-01-13T12:54:32.756Z,4.50
2023-01-13T12:56:59.992Z,4.50
2023-01-13T12:59:26.946Z,4.50
2023-01-13T13:02:12.287Z,4.40
2023-01-13T13:04:49.603Z,4.40
2023-01-13T13:07:24.037Z,4.40
2023-01-13T13:09:55.024Z,4.40
2023-01-13T13:12:49.775Z,4.40
2023-01-13T13:15:24.052Z,4.40
2023-01-13T13:18:00.213Z,4.40
2023-01-13T13:20:45.731Z,4.40
2023-01-13T13:23:31.297Z,4.40
2023-01-13T13:26:21.492Z,4.40
2023-01-13T13:28:54.757Z,4.40
2023-01-13T13:31:47.864Z,4.50
2023-01-13T13:34:14.879Z,4.40
2023-01-13T13:36:41.772Z,4.50
2023-01-13T13:39:39.685Z,4.40
2023-01-13T13:42:30.900Z,4.50
2023-01-13T13:45:17.418Z,4.50
2023-01-13T13:47:44.785Z,4.40
2023-01-13T13:50:16.358Z,4.40
2023-01-13T13:52:51.493Z,4.40
2023-01-13T13:55:20.167Z,4.40
2023-01-13T13:57:48.451Z,4.40
2023-01-13T14:00:15.693Z,4.40
2023-01-13T14:02:48.696Z,4.40
2023-01-13T14:05:20.399Z,4.50
2023-01-13T14:07:49.207Z,4.40
2023-01-13T14:10:18.592Z,4.50
2023-01-13T14:12:45.679Z,4.50
2023-01-13T14:15:28.047Z,4.40
2023-01-13T14:17:55.050Z,4.40
2023-01-13T14:20:22.068Z,4.40
2023-01-13T14:22:51.290Z,4.50
2023-01-13T14:25:27.421Z,4.50
2023-01-13T14:27:55.398Z,4.50
2023-01-13T14:30:23.345Z,4.50
2023-01-13T14:32:50.746Z,4.50
2023-01-13T14:35:18.539Z,4.50
2023-01-13T14:37:49.362Z,4.50
2023-01-13T14:40:44.812Z,4.50
2023-01-13T14:43:16.685Z,4.50
2023-01-13T14:45:54.064Z,4.50
2023-01-13T14:48:21.759Z,4.50
2023-01-13T14:50:48.742Z,4.50
2023-01-13T14:53:29.581Z,4.50
2023-01-13T14:55:56.582Z,4.50
2023-01-13T14:58:28.717Z,4.60
2023-01-13T15:01:14.413Z,4.60
2023-01-13T15:03:42.573Z,4.60
2023-01-13T15:06:26.101Z,4.60
2023-01-13T15:08:53.125Z,4.60
2023-01-13T15:11:25.205Z,4.60
2023-01-13T15:14:02.669Z,4.70
2023-01-13T15:16:33.869Z,4.60
2023-01-13T15:19:01.749Z,4.70
2023-01-13T15:21:28.865Z,4.70
2023-01-13T15:23:55.988Z,4.70
2023-01-13T15:26:25.197Z,4.70
2023-01-13T15:28:52.750Z,4.70
2023-01-13T15:31:20.423Z,4.70
2023-01-13T15:33:47.765Z,4.70
2023-01-13T15:36:20.189Z,4.70
2023-01-13T15:38:47.265Z,4.80
2023-01-13T15:41:14.384Z,4.80
2023-01-13T15:44:00.048Z,4.90
2023-01-13T15:46:39.091Z,4.80
2023-01-13T15:49:23.601Z,4.90
2023-01-13T15:51:50.721Z,4.90
2023-01-13T15:54:20.069Z,5.00
2023-01-13T15:56:47.564Z,4.90
2023-01-13T15:59:18.955Z,4.90
2023-01-13T16:01:46.218Z,5.00
2023-01-13T16:04:13.603Z,5.00
2023-01-13T16:06:40.752Z,5.00
2023-01-13T16:09:07.745Z,5.00
2023-01-13T16:11:34.918Z,5.00
2023-01-13T16:14:01.830Z,5.00
2023-01-13T16:16:28.935Z,5.00
2023-01-13T16:18:56.651Z,5.00
2023-01-13T16:21:23.620Z,5.00
2023-01-13T16:23:51.223Z,5.00
2023-01-13T16:26:20.554Z,5.00
2023-01-13T16:28:48.175Z,5.00
2023-01-13T16:31:19.643Z,5.00
2023-01-13T16:33:46.759Z,5.00
2023-01-13T16:36:23.154Z,5.00
2023-01-13T16:38:51.448Z,5.00
2023-01-13T16:41:19.608Z,5.00
2023-01-13T16:43:47.365Z,5.10
2023-01-13T16:46:20.926Z,5.10
2023-01-13T16:48:48.570Z,5.10
2023-01-13T16:51:15.867Z,5.10
2023-01-13T16:53:42.960Z,5.10
2023-01-13T16:56:28.647Z,5.10
2023-01-13T16:58:57.139Z,5.10
2023-01-13T17:01:29.077Z,5.10
2023-01-13T17:03:56.577Z,5.10
2023-01-13T17:06:35.811Z,5.10
2023-01-13T17:09:06.281Z,5.20
2023-01-13T17:11:33.520Z,5.20
2023-01-13T17:14:01.070Z,5.10
2023-01-13T17:16:44.460Z,5.20
2023-01-13T17:19:12.362Z,5.20
2023-01-13T17:21:39.289Z,5.20
2023-01-13T17:24:08.069Z,5.20
2023-01-13T17:26:37.493Z,5.30
2023-01-13T17:29:05.706Z,5.20
2023-01-13T17:31:32.851Z,5.30
2023-01-13T17:34:01.112Z,5.20
2023-01-13T17:36:28.307Z,5.30
2023-01-13T17:38:55.825Z,5.30
2023-01-13T17:41:23.274Z,5.30
2023-01-13T17:43:50.351Z,5.30
2023-01-13T17:46:19.436Z,5.30
2023-01-13T17:48:47.252Z,5.30
2023-01-13T17:51:15.249Z,5.40
2023-01-13T17:53:43.148Z,5.30
2023-01-13T17:56:10.945Z,5.40
2023-01-13T17:58:38.569Z,5.30
2023-01-13T18:01:09.445Z,5.40
2023-01-13T18:03:37.766Z,5.30
2023-01-13T18:06:09.545Z,5.30
2023-01-13T18:08:37.003Z,5.40
2023-01-13T18:11:04.232Z,5.30
2023-01-13T18:13:33.221Z,5.30
2023-01-13T18:16:02.421Z,5.30
2023-01-13T18:18:29.482Z,5.40
2023-01-13T18:21:15.214Z,5.30
2023-01-13T18:24:00.419Z,5.40
2023-01-13T18:26:46.797Z,5.40
2023-01-13T18:29:13.836Z,5.30
2023-01-13T18:31:40.910Z,5.40
2023-01-13T18:34:07.845Z,5.40
2023-01-13T18:36:34.883Z,5.40
2023-01-13T18:39:01.794Z,5.40
2023-01-13T18:41:47.412Z,5.40
2023-01-13T18:44:14.559Z,5.40
2023-01-13T18:46:41.545Z,5.30
2023-01-13T18:49:08.870Z,5.30
2023-01-13T18:51:35.819Z,5.30
2023-01-13T18:54:02.818Z,5.30
2023-01-13T18:56:31.329Z,5.30
2023-01-13T18:58:58.439Z,5.30
2023-01-13T19:01:26.785Z,5.30
2023-01-13T19:03:55.155Z,5.30
2023-01-13T19:06:22.579Z,5.20
2023-01-13T19:08:53.424Z,5.20
2023-01-13T19:11:21.555Z,5.20
2023-01-13T19:13:48.924Z,5.30
2023-01-13T19:16:16.416Z,5.20
2023-01-13T19:18:43.645Z,5.20
2023-01-13T19:21:10.901Z,5.20
2023-01-13T19:23:37.802Z,5.20
2023-01-13T19:26:06.720Z,5.30
2023-01-13T19:28:33.801Z,5.20
2023-01-13T19:31:01.790Z,5.30
2023-01-13T19:33:30.364Z,5.20
2023-01-13T19:35:57.648Z,5.30
2023-01-13T19:38:25.364Z,5.30
2023-01-13T19:40:56.382Z,5.30
2023-01-13T19:43:42.473Z,5.30
2023-01-13T19:46:10.447Z,5.30
2023-01-13T19:48:37.853Z,5.30
2023-01-13T19:51:04.993Z,5.30
2023-01-13T19:53:32.292Z,5.30
2023-01-13T19:55:59.373Z,5.30
2023-01-13T19:58:26.546Z,5.30
2023-01-13T20:00:54.383Z,5.30
2023-01-13T20:03:26.375Z,5.30
2023-01-13T20:05:53.722Z,5.30
2023-01-13T20:08:21.359Z,5.20
2023-01-13T20:10:49.087Z,5.20
2023-01-13T20:13:16.538Z,5.20
2023-01-13T20:15:44.547Z,5.20
2023-01-13T20:18:11.653Z,5.20
2023-01-13T20:20:38.682Z,5.20
2023-01-13T20:23:05.817Z,5.20
2023-01-13T20:25:32.902Z,5.20
2023-01-13T20:28:02.094Z,5.20
2023-01-13T20:30:29.167Z,5.20
2023-01-13T20:32:56.154Z,5.20
2023-01-13T20:35:24.507Z,5.10
2023-01-13T20:37:51.563Z,5.10
2023-01-13T20:40:18.694Z,5.20
2023-01-13T20:42:46.647Z,5.20
2023-01-13T20:45:17.630Z,5.20
2023-01-13T20:47:44.951Z,5.10
2023-01-13T20:50:12.380Z,5.10
2023-01-13T20:52:39.804Z,5.20
2023-01-13T20:55:07.255Z,5.20
2023-01-13T20:57:34.993Z,5.20
2023-01-13T21:00:03.115Z,5.20
2023-01-13T21:02:30.264Z,5.20
2023-01-13T21:04:57.368Z,5.20
2023-01-13T21:07:24.492Z,5.20
2023-01-13T21:09:51.499Z,5.20
2023-01-13T21:12:37.179Z,5.20
2023-01-13T21:15:23.022Z,5.10
2023-01-13T21:18:10.343Z,5.20
2023-01-13T21:20:38.699Z,5.20
2023-01-13T21:23:06.367Z,5.20
2023-01-13T21:25:35.381Z,5.10
2023-01-13T21:28:06.202Z,5.10
2023-01-13T21:30:33.756Z,5.20
2023-01-13T21:33:01.154Z,5.10
2023-01-13T21:35:28.178Z,5.10
2023-01-13T21:37:55.252Z,5.10
2023-01-13T21:40:22.320Z,5.10
2023-01-13T21:43:07.777Z,5.10
2023-01-13T21:45:53.341Z,5.20
2023-01-13T21:48:20.379Z,5.20
2023-01-13T21:50:47.293Z,5.20
2023-01-13T21:53:14.294Z,5.20
2023-01-13T21:55:41.902Z,5.20
2023-01-13T21:58:15.117Z,5.20
2023-01-13T22:00:43.651Z,5.20
2023-01-13T22:03:11.631Z,5.20
2023-01-13T22:05:39.135Z,5.20
2023-01-13T22:08:06.541Z,5.20
2023-01-13T22:10:34.128Z,5.20
2023-01-13T22:13:22.031Z,5.20
2023-01-13T22:15:49.033Z,5.20
2023-01-13T22:18:18.373Z,5.20
2023-01-13T22:20:45.830Z,5.20
2023-01-13T22:23:12.933Z,5.20
2023-01-13T22:25:39.906Z,5.20
2023-01-13T22:28:09.325Z,5.20
2023-01-13T22:30:36.473Z,5.20
2023-01-13T22:33:03.480Z,5.20
2023-01-13T22:35:30.501Z,5.30
2023-01-13T22:37:58.040Z,5.20
2023-01-13T22:40:25.052Z,5.30
2023-01-13T22:42:52.100Z,5.30
2023-01-13T22:45:19.101Z,5.30
2023-01-13T22:47:46.177Z,5.30
2023-01-13T22:50:13.402Z,5.30
2023-01-13T22:52:40.407Z,5.30
2023-01-13T22:55:07.682Z,5.30
2023-01-13T22:57:46.716Z,5.30
2023-01-13T23:00:15.154Z,5.30
2023-01-13T23:02:42.344Z,5.30
2023-01-13T23:05:09.502Z,5.30
2023-01-13T23:07:36.518Z,5.30
2023-01-13T23:10:04.370Z,5.30
2023-01-13T23:12:31.371Z,5.30
2023-01-13T23:14:58.364Z,5.30
2023-01-13T23:17:25.404Z,5.30
2023-01-13T23:19:52.345Z,5.30
2023-01-13T23:22:19.348Z,5.30
2023-01-13T23:24:46.663Z,5.30
2023-01-13T23:27:13.668Z,5.30
2023-01-13T23:29:40.644Z,5.30
2023-01-13T23:32:07.688Z,5.30
2023-01-13T23:34:34.722Z,5.30
2023-01-13T23:37:01.761Z,5.40
2023-01-13T23:39:28.754Z,5.30
2023-01-13T23:41:55.921Z,5.40
2023-01-13T23:44:22.961Z,5.40
2023-01-13T23:46:49.985Z,5.40
2023-01-13T23:49:17.048Z,5.40
2023-01-13T23:51:44.072Z,5.40
2023-01-13T23:54:11.123Z,5.40
2023-01-13T23:56:39.717Z,5.40
2023-01-13T23:59:06.847Z,5.40
